Time;durP1;ratioP1;P1;durP2;ratioP2;P2;SDS_P1;SDS_P2;PMS_P1;PMS_P2;Temp;Humidity;BMP_temperature;BMP_pressure;BME280_temperature;BME280_humidity;BME280_pressure;Samples;Min_cycle;Max_cycle;Signal;HPM_P1;HPM_P2
2023/10/24 12:57:04;;;;;;;12.60;9.60;;;18.40;99.90;;;;;;4591706;19;20011;-80
2023/10/24 12:58:45;;;;;;;15.07;13.45;;;18.40;99.90;;;;;;4593890;19;20002;-77
2023/10/24 13:00:20;;;;;;;13.35;11.95;;;18.10;99.90;;;;;;4590317;19;20006;-77
2023/10/24 13:01:56;;;;;;;13.75;12.27;;;17.80;99.90;;;;;;4591937;19;20015;-75
2023/10/24 13:03:32;;;;;;;14.38;12.88;;;17.70;99.90;;;;;;4591311;19;20006;-73
2023/10/24 13:05:07;;;;;;;15.32;13.73;;;17.60;99.90;;;;;;4592369;19;20317;-75
2023/10/24 13:06:42;;;;;;;14.05;11.73;;;17.50;99.90;;;;;;4591963;19;20006;-77
2023/10/24 13:08:18;;;;;;;13.75;11.98;;;17.40;99.90;;;;;;4593539;19;20010;-79
2023/10/24 13:09:53;;;;;;;12.50;11.10;;;17.30;99.90;;;;;;4594260;19;20011;-83
2023/10/24 13:11:27;;;;;;;13.30;11.52;;;17.30;99.90;;;;;;4593491;19;20025;-79
2023/10/24 13:13:03;;;;;;;15.63;13.20;;;17.30;99.90;;;;;;4593928;19;20438;-78
2023/10/24 13:14:38;;;;;;;13.25;11.32;;;17.20;99.90;;;;;;4593465;19;20066;-75
2023/10/24 13:16:13;;;;;;;14.27;12.68;;;17.20;99.90;;;;;;4593308;19;20421;-78
2023/10/24 13:17:49;;;;;;;14.75;11.55;;;17.20;99.90;;;;;;4593795;19;20070;-78
2023/10/24 13:19:24;;;;;;;17.77;13.60;;;17.20;99.90;;;;;;4592935;19;20079;-78
2023/10/24 13:20:59;;;;;;;14.95;12.65;;;17.20;99.90;;;;;;4593477;19;20106;-77
2023/10/24 13:22:35;;;;;;;16.70;13.05;;;17.20;99.90;;;;;;4593310;19;20006;-77
2023/10/24 13:24:10;;;;;;;15.60;13.05;;;17.20;99.90;;;;;;4593033;19;20481;-78
2023/10/24 13:25:44;;;;;;;14.32;12.25;;;17.20;99.90;;;;;;4593397;19;20454;-80
2023/10/24 13:27:21;;;;;;;12.88;11.57;;;17.20;99.90;;;;;;4591123;19;20006;-81
2023/10/24 13:28:56;;;;;;;14.00;11.18;;;17.20;99.90;;;;;;4591327;19;20033;-80
2023/10/24 13:30:31;;;;;;;14.98;10.77;;;17.30;99.90;;;;;;4591308;19;20019;-80
2023/10/24 13:32:08;;;;;;;13.43;10.63;;;17.30;99.90;;;;;;4591198;19;20007;-80
2023/10/24 13:33:45;;;;;;;13.40;11.68;;;17.40;99.90;;;;;;4591325;19;20014;-80
2023/10/24 13:35:20;;;;;;;14.52;10.50;;;17.50;99.90;;;;;;4590743;19;20014;-80
2023/10/24 13:36:58;;;;;;;13.00;10.18;;;17.50;99.90;;;;;;4590393;19;20017;-79
2023/10/24 13:38:33;;;;;;;14.02;11.10;;;17.50;99.90;;;;;;4590595;19;20041;-79
2023/10/24 13:40:09;;;;;;;13.23;10.90;;;17.60;99.90;;;;;;4590909;19;20007;-76
2023/10/24 13:41:45;;;;;;;12.90;10.27;;;17.60;99.90;;;;;;4591151;19;20062;-77
2023/10/24 13:43:19;;;;;;;13.02;10.27;;;17.60;99.90;;;;;;4590777;19;20002;-77
2023/10/24 13:44:54;;;;;;;14.88;11.77;;;17.70;99.90;;;;;;4590966;19;20060;-80
2023/10/24 13:46:32;;;;;;;14.45;10.82;;;17.70;99.90;;;;;;4590596;19;20006;-79
2023/10/24 13:48:07;;;;;;;14.32;10.23;;;17.80;99.90;;;;;;4591247;19;20422;-80
2023/10/24 13:49:41;;;;;;;15.27;12.55;;;17.80;99.90;;;;;;4590247;19;20031;-78
2023/10/24 13:51:17;;;;;;;15.25;12.30;;;17.80;99.90;;;;;;4589316;19;20011;-74
2023/10/24 13:52:53;;;;;;;14.52;12.63;;;17.80;99.90;;;;;;4589729;19;20085;-77
2023/10/24 13:54:27;;;;;;;16.02;12.23;;;17.80;99.90;;;;;;4590380;19;19995;-77
2023/10/24 13:56:04;;;;;;;17.10;13.35;;;17.90;99.90;;;;;;4588146;19;20010;-77
2023/10/24 13:57:39;;;;;;;13.77;11.88;;;17.90;99.90;;;;;;4589703;19;20015;-77
2023/10/24 13:59:14;;;;;;;14.23;12.02;;;17.90;99.90;;;;;;4589554;19;19998;-77
2023/10/24 14:05:52;;;;;;;16.30;13.40;;;18.00;99.90;;;;;;4568203;19;20011;-75
2023/10/24 14:07:28;;;;;;;14.85;13.25;;;18.00;99.90;;;;;;4591686;19;20010;-85
2023/10/24 14:09:04;;;;;;;16.02;14.27;;;18.10;99.90;;;;;;4591471;19;20108;-83
2023/10/24 14:10:39;;;;;;;17.48;14.32;;;18.10;99.90;;;;;;4591585;19;20014;-81
2023/10/24 14:12:15;;;;;;;18.80;13.75;;;18.10;99.90;;;;;;4590426;19;20018;-77
2023/10/24 14:13:51;;;;;;;14.77;13.13;;;18.10;99.90;;;;;;4590317;19;20015;-81
2023/10/24 14:15:25;;;;;;;17.77;13.88;;;18.20;99.90;;;;;;4590362;19;20065;-82
2023/10/24 14:17:01;;;;;;;18.27;14.43;;;18.20;99.90;;;;;;4590221;19;20002;-81
2023/10/24 14:18:36;;;;;;;20.77;16.88;;;18.30;99.90;;;;;;4589876;19;20003;-81
2023/10/24 14:20:11;;;;;;;20.27;17.20;;;18.30;99.90;;;;;;4590931;19;20374;-81
2023/10/24 14:21:48;;;;;;;29.50;26.02;;;18.30;99.90;;;;;;4591371;19;20074;-81
2023/10/24 14:23:22;;;;;;;21.50;18.60;;;18.20;99.90;;;;;;4591512;19;20439;-82
2023/10/24 14:24:57;;;;;;;16.92;14.90;;;18.20;99.90;;;;;;4590850;19;20015;-81
2023/10/24 14:26:33;;;;;;;17.05;14.25;;;18.20;99.90;;;;;;4588788;19;20017;-82
2023/10/24 14:28:08;;;;;;;16.73;14.45;;;18.20;99.90;;;;;;4591248;19;20010;-81
2023/10/24 14:29:43;;;;;;;16.83;15.00;;;18.20;99.90;;;;;;4591346;19;20451;-82
2023/10/24 14:31:19;;;;;;;18.90;16.88;;;18.20;99.90;;;;;;4594955;19;20006;-82
2023/10/24 14:32:54;;;;;;;18.67;16.17;;;18.20;99.90;;;;;;4595687;19;20006;-82
2023/10/24 14:34:29;;;;;;;16.77;15.15;;;18.20;99.90;;;;;;4594230;19;20006;-81
2023/10/24 14:36:05;;;;;;;18.30;15.63;;;18.20;99.90;;;;;;4593596;19;20407;-81
2023/10/24 14:37:39;;;;;;;18.85;16.17;;;18.20;99.90;;;;;;4595765;19;20031;-81
2023/10/24 14:39:14;;;;;;;17.52;15.70;;;18.20;99.90;;;;;;4595699;19;20006;-81
2023/10/24 14:40:50;;;;;;;18.05;16.25;;;18.30;99.90;;;;;;4595800;19;20007;-82
2023/10/24 14:42:25;;;;;;;23.08;20.40;;;18.20;99.90;;;;;;4595768;19;20003;-81
2023/10/24 14:44:00;;;;;;;25.80;23.00;;;18.20;99.90;;;;;;4594378;19;20466;-81
2023/10/24 14:45:37;;;;;;;20.33;18.23;;;18.20;99.90;;;;;;4594308;19;20347;-82
2023/10/24 14:47:12;;;;;;;22.80;19.42;;;18.20;99.90;;;;;;4593647;19;20333;-82
2023/10/24 14:48:47;;;;;;;20.45;16.88;;;18.20;99.90;;;;;;4594025;19;19999;-82
2023/10/24 14:50:23;;;;;;;20.30;16.90;;;18.20;99.90;;;;;;4594366;19;20007;-82
2023/10/24 14:51:58;;;;;;;18.95;15.88;;;18.20;99.90;;;;;;4594509;19;20011;-81
2023/10/24 14:53:32;;;;;;;21.48;17.88;;;18.20;99.90;;;;;;4594689;19;20002;-82
2023/10/24 14:55:08;;;;;;;20.25;17.67;;;18.20;99.90;;;;;;4593987;19;20003;-81
2023/10/24 14:56:43;;;;;;;22.67;20.27;;;18.20;99.90;;;;;;4595039;19;20002;-81
2023/10/24 14:58:18;;;;;;;23.05;20.55;;;18.20;99.90;;;;;;4595454;19;19998;-81
2023/10/24 14:59:54;;;;;;;21.80;19.45;;;18.20;99.90;;;;;;4595477;19;20016;-82
2023/10/24 15:01:29;;;;;;;20.58;18.33;;;18.20;99.90;;;;;;4594548;19;20014;-82
2023/10/24 15:03:04;;;;;;;21.02;18.55;;;18.10;99.90;;;;;;4593944;19;20028;-81
2023/10/24 15:04:40;;;;;;;23.05;18.92;;;18.20;99.90;;;;;;4595103;19;20027;-82
2023/10/24 15:06:15;;;;;;;21.38;18.40;;;18.10;99.90;;;;;;4592361;19;20018;-82
2023/10/24 15:07:49;;;;;;;21.27;18.25;;;18.10;99.90;;;;;;4594971;19;20069;-82
2023/10/24 15:09:25;;;;;;;19.15;17.15;;;18.20;99.90;;;;;;4593929;19;20022;-81
2023/10/24 15:10:59;;;;;;;23.52;19.48;;;18.10;99.90;;;;;;4594803;19;20003;-81
2023/10/24 15:12:34;;;;;;;21.10;18.88;;;18.10;99.90;;;;;;4595071;19;20033;-81
2023/10/24 15:14:10;;;;;;;20.30;18.20;;;18.20;99.90;;;;;;4595179;19;20002;-81
2023/10/24 15:15:45;;;;;;;20.92;18.80;;;18.10;99.90;;;;;;4593924;19;20007;-81
2023/10/24 15:17:19;;;;;;;21.17;19.08;;;18.10;99.90;;;;;;4593990;19;20002;-81
2023/10/24 15:18:56;;;;;;;23.17;19.17;;;18.10;99.90;;;;;;4594734;19;20298;-81
2023/10/24 15:20:31;;;;;;;22.05;19.70;;;18.10;99.90;;;;;;4594990;19;19999;-81
2023/10/24 15:22:05;;;;;;;20.50;18.35;;;18.10;99.90;;;;;;4595357;19;20362;-82
2023/10/24 15:23:41;;;;;;;21.27;18.65;;;18.10;99.90;;;;;;4593694;19;20354;-81
2023/10/24 15:25:17;;;;;;;24.42;19.27;;;18.10;99.90;;;;;;4594316;19;20002;-81
2023/10/24 15:26:52;;;;;;;22.35;19.60;;;18.10;99.90;;;;;;4594954;19;20010;-82
2023/10/24 15:28:28;;;;;;;21.60;19.05;;;18.10;99.90;;;;;;4594874;19;20013;-81
2023/10/24 15:30:04;;;;;;;22.02;19.15;;;18.10;99.90;;;;;;4594641;19;20010;-82
2023/10/24 15:31:39;;;;;;;45.38;32.13;;;18.10;99.90;;;;;;4595034;19;20006;-81
2023/10/24 15:33:15;;;;;;;141.02;99.03;;;18.10;99.90;;;;;;4595033;19;20001;-82
2023/10/24 15:34:50;;;;;;;115.15;80.05;;;18.00;99.90;;;;;;4594907;19;20026;-81
2023/10/24 15:36:25;;;;;;;127.75;89.03;;;18.10;99.90;;;;;;4593220;19;20002;-82
2023/10/24 15:38:01;;;;;;;120.07;79.18;;;18.10;99.90;;;;;;4593239;19;20013;-82
2023/10/24 15:39:37;;;;;;;126.15;82.20;;;18.10;99.90;;;;;;4594468;19;19999;-81
2023/10/24 15:41:11;;;;;;;234.48;144.43;;;18.00;99.90;;;;;;4596003;19;20011;-82
2023/10/24 15:42:47;;;;;;;275.10;174.20;;;18.10;99.90;;;;;;4592071;19;20428;-78
2023/10/24 15:44:22;;;;;;;303.80;191.60;;;18.10;99.90;;;;;;4594598;19;20457;-82
2023/10/24 15:46:09;;;;;;;241.45;145.82;;;18.10;99.90;;;;;;4592170;19;20022;-80
2023/10/24 15:47:46;;;;;;;136.93;81.63;;;18.10;99.90;;;;;;4594967;19;20086;-79
2023/10/24 15:49:20;;;;;;;166.50;94.22;;;18.10;99.90;;;;;;4595281;19;20007;-79
2023/10/24 15:51:03;;;;;;;365.40;195.60;;;18.20;99.90;;;;;;4594825;19;20002;-82
2023/10/24 15:52:38;;;;;;;500.05;307.38;;;18.20;99.90;;;;;;4593709;19;20032;-83
2023/10/24 15:54:13;;;;;;;376.42;235.00;;;18.20;99.90;;;;;;4593310;19;19994;-81
2023/10/24 15:55:56;;;;;;;187.50;110.85;;;18.20;99.90;;;;;;4594203;19;20005;-80
2023/10/24 15:57:39;;;;;;;106.30;54.92;;;18.20;99.90;;;;;;4597252;19;20011;-81
2023/10/24 15:59:14;;;;;;;72.50;38.28;;;18.20;99.90;;;;;;4599980;19;20019;-79
2023/10/24 16:00:49;;;;;;;97.47;48.25;;;18.20;99.90;;;;;;4596878;19;20002;-75
2023/10/24 16:02:27;;;;;;;89.40;43.20;;;18.20;99.90;;;;;;4595878;19;20010;-80
2023/10/24 16:04:01;;;;;;;80.55;42.60;;;18.30;99.90;;;;;;4594480;19;20413;-80
2023/10/24 16:05:35;;;;;;;104.57;53.60;;;18.20;99.90;;;;;;4593558;19;20356;-79
2023/10/24 16:07:10;;;;;;;100.45;51.35;;;18.20;99.90;;;;;;4594713;19;20024;-78
2023/10/24 16:08:43;;;;;;;78.18;42.50;;;18.20;99.90;;;;;;4594475;19;20031;-77
2023/10/24 16:10:18;;;;;;;62.10;34.63;;;18.30;99.90;;;;;;4594331;19;20003;-79
2023/10/24 16:11:53;;;;;;;46.75;29.58;;;18.30;99.90;;;;;;4593707;19;20002;-79
2023/10/24 16:13:29;;;;;;;46.00;29.10;;;18.30;99.90;;;;;;4594468;19;20015;-80
2023/10/24 16:15:04;;;;;;;51.13;29.20;;;18.30;99.90;;;;;;4594604;19;20005;-81
2023/10/24 16:16:43;;;;;;;68.85;38.58;;;18.20;99.90;;;;;;4595861;19;20016;-84
2023/10/24 16:18:18;;;;;;;57.63;34.28;;;18.20;99.90;;;;;;4597492;19;20358;-83
2023/10/24 16:19:53;;;;;;;37.90;26.77;;;18.30;99.90;;;;;;4597674;19;20003;-83
2023/10/24 16:21:28;;;;;;;38.38;25.92;;;18.30;99.90;;;;;;4595030;19;20070;-82
2023/10/24 16:23:02;;;;;;;40.90;26.60;;;18.30;99.90;;;;;;4592945;19;20013;-81
2023/10/24 16:24:36;;;;;;;32.03;22.88;;;18.30;99.90;;;;;;4592355;19;20074;-82
2023/10/24 16:26:11;;;;;;;39.40;25.70;;;18.30;99.90;;;;;;4591697;19;20002;-81
2023/10/24 16:27:46;;;;;;;37.97;27.10;;;18.30;99.90;;;;;;4593833;19;20005;-80
2023/10/24 16:29:20;;;;;;;42.38;28.65;;;18.40;99.90;;;;;;4594149;19;19998;-81
2023/10/24 16:30:56;;;;;;;32.08;23.27;;;18.40;99.90;;;;;;4592437;19;20007;-79
2023/10/24 16:32:30;;;;;;;37.88;27.63;;;18.50;99.90;;;;;;4593487;19;20002;-80
2023/10/24 16:34:05;;;;;;;;;;;18.60;99.90;;;;;;4597988;19;19994;-77
2023/10/24 16:35:40;;;;;;;;;;;18.80;99.90;;;;;;4598093;19;20292;-77
2023/10/24 16:37:14;;;;;;;;;;;19.60;99.90;;;;;;4606208;19;19918;-75
2023/10/24 16:38:48;;;;;;;44.10;16.15;;;20.10;99.90;;;;;;4597229;19;19922;-86
2023/10/24 16:40:26;;;;;;;;;;;20.30;99.90;;;;;;4594880;19;20019;-82
2023/10/24 16:41:59;;;;;;;;;;;20.40;99.90;;;;;;4596113;19;19922;-80
2023/10/24 16:43:33;;;;;;;;;;;20.50;99.90;;;;;;4595879;19;19918;-79
2023/10/24 16:45:08;;;;;;;;;;;20.60;99.90;;;;;;4596625;19;19954;-75
2023/10/24 16:46:42;;;;;;;;;;;21.00;99.90;;;;;;4601363;19;20298;-78
2023/10/24 16:48:27;;;;;;;;;;;21.10;99.90;;;;;;4604506;19;20431;-86
2023/10/24 16:50:03;;;;;;;18.70;11.53;;;21.20;99.90;;;;;;4602189;19;19922;-81
2023/10/24 16:51:43;;;;;;;20.90;12.80;;;21.10;99.90;;;;;;4594296;19;20069;-94
2023/10/24 16:53:17;;;;;;;21.58;11.48;;;21.10;99.90;;;;;;4594668;19;20011;-74
2023/10/24 16:54:53;;;;;;;28.42;23.35;;;21.10;99.90;;;;;;4593815;19;20010;-76
2023/10/24 16:56:27;;;;;;;24.65;21.90;;;20.60;99.90;;;;;;4594298;19;20021;-86
2023/10/24 16:58:04;;;;;;;24.88;22.02;;;19.70;99.90;;;;;;4593210;19;20019;-85
2023/10/24 16:59:47;;;;;;;25.27;21.02;;;19.60;99.90;;;;;;4593127;19;20003;-94
2023/10/24 17:01:24;;;;;;;23.83;21.33;;;19.50;99.90;;;;;;4593709;19;20307;-86
2023/10/24 17:02:59;;;;;;;26.52;21.90;;;19.50;99.90;;;;;;4591518;19;20023;-89
2023/10/24 17:04:34;;;;;;;27.27;21.77;;;19.40;99.90;;;;;;4592754;19;20057;-86
2023/10/24 17:06:09;;;;;;;28.80;23.75;;;19.40;99.90;;;;;;4592678;19;20042;-84
2023/10/24 17:07:43;;;;;;;30.45;26.40;;;19.40;99.90;;;;;;4592704;19;20014;-83
2023/10/24 17:09:18;;;;;;;25.50;22.45;;;19.30;99.90;;;;;;4592088;19;20010;-77
2023/10/24 17:10:58;;;;;;;32.30;22.33;;;19.30;99.90;;;;;;4591286;19;20071;-80
2023/10/24 17:12:33;;;;;;;23.75;21.25;;;19.30;99.90;;;;;;4591298;19;20066;-81
2023/10/24 17:14:09;;;;;;;24.35;21.83;;;19.40;99.90;;;;;;4592494;19;20014;-79
2023/10/24 17:15:45;;;;;;;35.20;26.75;;;19.50;99.90;;;;;;4594183;19;20018;-84
2023/10/24 17:17:20;;;;;;;32.45;26.27;;;19.50;99.90;;;;;;4592268;19;20003;-87
2023/10/24 17:18:55;;;;;;;30.70;25.98;;;19.40;99.90;;;;;;4591258;19;20014;-78
2023/10/24 17:20:33;;;;;;;31.50;27.17;;;19.30;99.90;;;;;;4591839;19;20011;-75
2023/10/24 17:22:10;;;;;;;31.95;26.52;;;19.20;99.90;;;;;;4591215;19;20013;-79
2023/10/24 17:23:46;;;;;;;33.70;25.13;;;19.20;99.90;;;;;;4592115;19;20022;-74
2023/10/24 17:25:20;;;;;;;35.80;26.67;;;19.10;99.90;;;;;;4590056;19;20010;-77
2023/10/24 17:26:54;;;;;;;34.53;28.77;;;19.00;99.90;;;;;;4591804;19;20429;-77
2023/10/24 17:28:31;;;;;;;41.38;32.15;;;19.00;99.90;;;;;;4592464;19;20015;-77
2023/10/24 17:30:06;;;;;;;36.83;30.23;;;19.00;99.90;;;;;;4592164;19;20018;-77
2023/10/24 17:31:43;;;;;;;40.08;32.03;;;19.00;99.90;;;;;;4592005;19;20006;-77
2023/10/24 17:33:27;;;;;;;45.85;34.00;;;19.00;99.90;;;;;;4590833;19;20093;-76
2023/10/24 17:35:01;;;;;;;37.13;28.85;;;19.10;99.90;;;;;;4590821;19;19998;-77
2023/10/24 17:36:37;;;;;;;43.63;33.95;;;19.10;99.90;;;;;;4591533;19;20007;-77
2023/10/24 17:38:12;;;;;;;39.45;29.35;;;19.20;99.90;;;;;;4592582;19;20022;-77
2023/10/24 17:39:47;;;;;;;36.05;27.92;;;19.20;99.90;;;;;;4592515;19;20039;-76
2023/10/24 17:41:21;;;;;;;43.03;32.05;;;19.20;99.90;;;;;;4589168;19;20073;-77
2023/10/24 17:42:56;;;;;;;59.88;40.55;;;19.20;99.90;;;;;;4589086;19;20033;-76
2023/10/24 17:44:30;;;;;;;54.97;37.72;;;19.30;99.90;;;;;;4589011;19;20027;-77
2023/10/24 17:46:08;;;;;;;49.80;35.58;;;19.30;99.90;;;;;;4588415;19;20074;-77
2023/10/24 17:47:44;;;;;;;46.40;32.53;;;19.40;99.90;;;;;;4589766;19;20015;-77
2023/10/24 17:49:18;;;;;;;46.58;33.45;;;19.40;99.90;;;;;;4589538;19;20007;-76
2023/10/24 17:50:52;;;;;;;42.10;29.77;;;19.50;99.90;;;;;;4589674;19;20303;-77
2023/10/24 17:52:30;;;;;;;61.30;39.10;;;19.50;99.90;;;;;;4589533;19;20002;-77
2023/10/24 17:54:06;;;;;;;63.22;38.80;;;19.50;99.90;;;;;;4589671;19;20562;-75
2023/10/24 17:55:41;;;;;;;43.50;30.75;;;19.60;99.90;;;;;;4591054;19;20074;-75
2023/10/24 17:57:17;;;;;;;61.05;36.28;;;19.60;99.90;;;;;;4591886;19;20321;-77
2023/10/24 17:58:52;;;;;;;68.07;40.42;;;19.60;99.90;;;;;;4591923;19;20041;-78
2023/10/24 18:00:27;;;;;;;66.53;37.83;;;19.60;99.90;;;;;;4591719;19;20010;-77
2023/10/24 18:02:05;;;;;;;73.18;42.78;;;19.60;99.90;;;;;;4591718;19;20007;-75
2023/10/24 18:03:39;;;;;;;63.22;36.22;;;19.60;99.90;;;;;;4590549;19;20073;-76
2023/10/24 18:05:13;;;;;;;72.40;40.80;;;19.50;99.90;;;;;;4590881;19;19994;-75
2023/10/24 18:06:49;;;;;;;45.55;29.52;;;19.50;99.90;;;;;;4596624;19;20006;-78
2023/10/24 18:08:23;;;;;;;61.85;36.22;;;19.50;99.90;;;;;;4594822;19;20003;-77
2023/10/24 18:09:58;;;;;;;65.80;37.47;;;19.50;99.90;;;;;;4595992;19;20003;-78
2023/10/24 18:11:34;;;;;;;59.08;34.35;;;19.50;99.90;;;;;;4594850;19;20425;-78
2023/10/24 18:13:08;;;;;;;65.10;36.28;;;19.50;99.90;;;;;;4595821;19;20014;-77
2023/10/24 18:14:42;;;;;;;73.55;39.08;;;19.50;99.90;;;;;;4596033;19;20006;-76
2023/10/24 18:16:18;;;;;;;61.15;35.90;;;19.40;99.90;;;;;;4594623;19;20027;-77
2023/10/24 18:17:51;;;;;;;98.25;50.45;;;19.40;99.90;;;;;;4594708;19;20002;-78
2023/10/24 18:19:27;;;;;;;60.80;35.80;;;19.40;99.90;;;;;;4595683;19;20062;-76
2023/10/24 18:21:02;;;;;;;61.88;36.78;;;19.30;99.90;;;;;;4596299;19;20435;-77
2023/10/24 18:22:37;;;;;;;64.30;38.30;;;19.20;99.90;;;;;;4595922;19;20006;-77
2023/10/24 18:24:13;;;;;;;59.15;35.70;;;19.20;99.90;;;;;;4595909;19;20003;-76
2023/10/24 18:25:52;;;;;;;64.78;37.78;;;19.10;99.90;;;;;;4595020;19;20290;-76
2023/10/24 18:27:28;;;;;;;59.47;35.75;;;19.10;99.90;;;;;;4595867;19;20002;-76
2023/10/24 18:29:04;;;;;;;52.97;33.90;;;19.00;99.90;;;;;;4595902;19;20010;-77
2023/10/24 18:30:39;;;;;;;46.80;30.33;;;19.00;99.90;;;;;;4595839;19;20014;-78
2023/10/24 18:32:14;;;;;;;55.55;33.40;;;18.90;99.90;;;;;;4595735;19;20338;-77
2023/10/24 18:33:48;;;;;;;38.65;26.30;;;18.90;99.90;;;;;;4595949;19;20291;-77
2023/10/24 18:35:24;;;;;;;42.95;29.48;;;18.90;99.90;;;;;;4595055;19;20028;-79
2023/10/24 18:36:58;;;;;;;37.03;25.90;;;18.80;99.90;;;;;;4595595;19;20002;-77
2023/10/24 18:38:36;;;;;;;66.70;39.67;;;18.90;99.90;;;;;;4595609;19;20002;-79
2023/10/24 18:40:12;;;;;;;55.58;34.60;;;18.80;99.90;;;;;;4596055;19;20286;-77
2023/10/24 18:41:46;;;;;;;97.47;50.55;;;18.80;99.90;;;;;;4595693;19;20007;-77
2023/10/24 18:43:20;;;;;;;98.65;52.38;;;18.80;99.90;;;;;;4595656;19;20066;-76
2023/10/24 18:44:59;;;;;;;82.32;44.78;;;18.70;99.90;;;;;;4595673;19;20006;-77
2023/10/24 18:46:32;;;;;;;76.35;44.53;;;18.70;99.90;;;;;;4593870;19;20011;-78
2023/10/24 18:48:08;;;;;;;87.95;48.15;;;18.70;99.90;;;;;;4595486;19;20070;-77
2023/10/24 18:49:44;;;;;;;85.32;48.80;;;18.70;99.90;;;;;;4594659;19;20520;-78
2023/10/24 18:51:19;;;;;;;140.02;75.43;;;18.70;99.90;;;;;;4594057;19;20516;-77
2023/10/24 18:52:53;;;;;;;66.35;43.05;;;18.70;99.90;;;;;;4595091;19;20002;-77
2023/10/24 18:54:29;;;;;;;51.65;33.78;;;18.70;99.90;;;;;;4595471;19;20115;-77
2023/10/24 18:56:03;;;;;;;58.10;37.85;;;18.70;99.90;;;;;;4594257;19;20006;-77
2023/10/24 18:57:37;;;;;;;58.33;39.65;;;18.70;99.90;;;;;;4595248;19;20003;-77
2023/10/24 18:59:12;;;;;;;57.50;40.05;;;18.70;99.90;;;;;;4595240;19;20077;-77
2023/10/24 19:00:48;;;;;;;41.20;30.10;;;18.60;99.90;;;;;;4595181;19;20069;-77
2023/10/24 19:02:22;;;;;;;38.17;30.30;;;18.60;99.90;;;;;;4595433;19;20003;-77
2023/10/24 19:03:58;;;;;;;33.75;26.63;;;18.60;99.90;;;;;;4593898;19;20006;-77
2023/10/24 19:05:33;;;;;;;43.72;32.83;;;18.60;99.90;;;;;;4593931;19;20437;-77
2023/10/24 19:07:06;;;;;;;52.17;35.92;;;18.70;99.90;;;;;;4593899;19;20014;-77
2023/10/24 19:08:43;;;;;;;45.38;33.15;;;18.70;99.90;;;;;;4593870;19;20011;-77
2023/10/24 19:10:17;;;;;;;60.25;42.45;;;18.60;99.90;;;;;;4594819;19;20429;-77
2023/10/24 19:11:52;;;;;;;57.15;40.92;;;18.60;99.90;;;;;;4593783;19;20003;-77
2023/10/24 19:13:31;;;;;;;44.60;33.47;;;18.60;99.90;;;;;;4595134;19;20038;-77
2023/10/24 19:15:06;;;;;;;46.38;35.65;;;18.60;99.90;;;;;;4594869;19;20007;-77
2023/10/24 19:16:40;;;;;;;69.10;46.83;;;18.60;99.90;;;;;;4594286;19;20014;-77
2023/10/24 19:18:16;;;;;;;47.22;35.22;;;18.60;99.90;;;;;;4595113;19;20006;-77
2023/10/24 19:19:50;;;;;;;52.35;37.88;;;18.60;99.90;;;;;;4595005;19;20002;-79
2023/10/24 19:21:25;;;;;;;43.80;34.47;;;18.50;99.90;;;;;;4593584;19;20006;-78
2023/10/24 19:23:04;;;;;;;35.35;28.60;;;18.60;99.90;;;;;;4594185;19;20010;-78
2023/10/24 19:24:38;;;;;;;54.70;38.63;;;18.60;99.90;;;;;;4594993;19;20007;-79
2023/10/24 19:26:12;;;;;;;65.88;46.75;;;18.60;99.90;;;;;;4593326;19;20306;-77
2023/10/24 19:27:48;;;;;;;40.95;32.53;;;18.50;99.90;;;;;;4593400;19;20007;-76
2023/10/24 19:29:23;;;;;;;36.58;28.92;;;18.60;99.90;;;;;;4594327;19;20037;-76
2023/10/24 19:30:57;;;;;;;59.25;43.85;;;18.50;99.90;;;;;;4594729;19;19999;-77
2023/10/24 19:32:33;;;;;;;52.47;39.55;;;18.50;99.90;;;;;;4594987;19;20013;-78
2023/10/24 19:34:08;;;;;;;47.28;36.83;;;18.50;99.90;;;;;;4594838;19;20002;-78
2023/10/24 19:35:42;;;;;;;58.47;43.47;;;18.50;99.90;;;;;;4593701;19;20013;-77
2023/10/24 19:37:17;;;;;;;46.92;36.05;;;18.50;99.90;;;;;;4593251;19;20002;-77
2023/10/24 19:38:51;;;;;;;49.88;37.20;;;18.50;99.90;;;;;;4593190;19;20002;-77
2023/10/24 19:40:27;;;;;;;48.63;37.13;;;18.50;99.90;;;;;;4594157;19;20011;-77
2023/10/24 19:42:03;;;;;;;47.38;37.00;;;18.40;99.90;;;;;;4594537;19;20007;-77
2023/10/24 19:43:39;;;;;;;37.40;31.02;;;18.40;99.90;;;;;;4594385;19;20007;-77
2023/10/24 19:45:14;;;;;;;36.38;28.55;;;18.40;99.90;;;;;;4592877;19;20002;-77
2023/10/24 19:46:50;;;;;;;39.72;33.47;;;18.40;99.90;;;;;;4594488;19;20022;-77
2023/10/24 19:48:24;;;;;;;37.63;30.98;;;18.40;99.90;;;;;;4593124;19;20021;-77
2023/10/24 19:49:58;;;;;;;30.63;26.90;;;18.40;99.90;;;;;;4593318;19;19998;-77
2023/10/24 19:51:34;;;;;;;37.92;29.80;;;18.40;99.90;;;;;;4594050;19;20003;-77
2023/10/24 19:53:09;;;;;;;38.08;30.00;;;18.40;99.90;;;;;;4593024;19;20045;-77
2023/10/24 19:54:43;;;;;;;37.67;30.85;;;18.40;99.90;;;;;;4593886;19;20019;-78
2023/10/24 19:56:19;;;;;;;31.73;27.80;;;18.40;99.90;;;;;;4592926;19;20018;-77
2023/10/24 19:57:53;;;;;;;40.45;33.35;;;18.30;99.90;;;;;;4594380;19;20002;-77
2023/10/24 19:59:28;;;;;;;39.95;32.70;;;18.40;99.90;;;;;;4594103;19;20007;-77
2023/10/24 20:01:10;;;;;;;42.20;34.80;;;18.30;99.90;;;;;;4594187;19;20075;-77
2023/10/24 20:02:45;;;;;;;38.40;30.67;;;18.30;99.90;;;;;;4594466;19;20334;-77
2023/10/24 20:04:20;;;;;;;40.53;33.03;;;18.30;99.90;;;;;;4593885;19;20303;-77
2023/10/24 20:05:56;;;;;;;27.38;24.45;;;18.30;99.90;;;;;;4592924;19;20074;-77
2023/10/24 20:07:30;;;;;;;37.45;31.92;;;18.30;99.90;;;;;;4592607;19;20450;-77
2023/10/24 20:09:06;;;;;;;44.33;35.20;;;18.30;99.90;;;;;;4593620;19;20078;-77
2023/10/24 20:10:42;;;;;;;36.50;31.25;;;18.30;99.90;;;;;;4593991;19;20002;-77
2023/10/24 20:12:17;;;;;;;36.63;32.42;;;18.30;99.90;;;;;;4593859;19;20012;-77
2023/10/24 20:13:51;;;;;;;35.28;30.58;;;18.30;99.90;;;;;;4593770;19;20010;-77
2023/10/24 20:15:27;;;;;;;38.78;31.10;;;18.30;99.90;;;;;;4592029;19;20445;-77
2023/10/24 20:17:01;;;;;;;34.70;29.10;;;18.30;99.90;;;;;;4593444;19;20103;-77
2023/10/24 20:18:35;;;;;;;37.08;30.33;;;18.30;99.90;;;;;;4593941;19;19998;-77
2023/10/24 20:20:11;;;;;;;39.35;32.38;;;18.30;99.90;;;;;;4593696;19;20462;-77
2023/10/24 20:21:47;;;;;;;36.30;31.48;;;18.30;99.90;;;;;;4593563;19;20014;-77
2023/10/24 20:23:21;;;;;;;33.30;28.20;;;18.30;99.90;;;;;;4593543;19;20003;-77
2023/10/24 20:24:58;;;;;;;32.85;27.75;;;18.30;99.90;;;;;;4593672;19;20306;-77
2023/10/24 20:26:32;;;;;;;30.30;26.88;;;18.30;99.90;;;;;;4592504;19;20006;-77
2023/10/24 20:28:06;;;;;;;29.60;25.20;;;18.30;99.90;;;;;;4590622;19;20073;-77
2023/10/24 20:29:44;;;;;;;30.10;26.90;;;18.30;99.90;;;;;;4593319;19;20429;-77
2023/10/24 20:31:17;;;;;;;31.98;27.00;;;18.30;99.90;;;;;;4593174;19;20055;-77
2023/10/24 20:32:53;;;;;;;29.25;25.40;;;18.20;99.90;;;;;;4592148;19;20006;-77
2023/10/24 20:34:31;;;;;;;29.77;26.35;;;18.30;99.90;;;;;;4593169;19;20005;-77
2023/10/24 20:36:06;;;;;;;30.63;26.85;;;18.20;99.90;;;;;;4592416;19;20010;-77
2023/10/24 20:37:41;;;;;;;28.50;25.52;;;18.30;99.90;;;;;;4592240;19;20007;-77
2023/10/24 20:39:17;;;;;;;27.55;24.17;;;18.30;99.90;;;;;;4593019;19;20028;-77
2023/10/24 20:40:52;;;;;;;27.98;25.02;;;18.30;99.90;;;;;;4593206;19;20003;-77
2023/10/24 20:42:26;;;;;;;26.42;23.75;;;18.30;99.90;;;;;;4593105;19;20011;-77
2023/10/24 20:44:01;;;;;;;30.27;26.88;;;18.30;99.90;;;;;;4593197;19;20010;-77
2023/10/24 20:45:35;;;;;;;32.05;28.13;;;18.30;99.90;;;;;;4592867;19;20003;-77
2023/10/24 20:47:09;;;;;;;30.60;25.67;;;18.30;99.90;;;;;;4591833;19;20002;-77
2023/10/24 20:48:44;;;;;;;29.17;25.50;;;18.30;99.90;;;;;;4592786;19;20032;-77
2023/10/24 20:50:18;;;;;;;32.80;26.00;;;18.30;99.90;;;;;;4592979;19;20302;-77
2023/10/24 20:51:52;;;;;;;27.05;24.13;;;18.30;99.90;;;;;;4592985;19;20019;-77
2023/10/24 20:53:30;;;;;;;28.67;25.58;;;18.30;99.90;;;;;;4591772;19;20014;-77
2023/10/24 20:55:06;;;;;;;27.33;24.17;;;18.20;99.90;;;;;;4592553;19;20006;-77
2023/10/24 20:56:40;;;;;;;35.28;30.00;;;18.20;99.90;;;;;;4592834;19;20088;-77
2023/10/24 20:58:15;;;;;;;31.15;27.40;;;18.30;99.90;;;;;;4592199;19;20011;-77
2023/10/24 20:59:49;;;;;;;29.98;26.77;;;18.20;99.90;;;;;;4592209;19;20003;-77
2023/10/24 21:01:24;;;;;;;29.48;24.98;;;18.20;99.90;;;;;;4592157;19;19999;-77
2023/10/24 21:03:01;;;;;;;29.98;26.55;;;18.20;99.90;;;;;;4590805;19;20449;-77
2023/10/24 21:04:37;;;;;;;26.75;23.95;;;18.20;99.90;;;;;;4591900;19;20023;-77
2023/10/24 21:06:12;;;;;;;27.40;24.42;;;18.20;99.90;;;;;;4591362;19;20018;-77